Terminal Aerodrome Forecast
Issued by NWS Billings, MT

Home | Current Version | Previous Version | Text Only | Print | Product List | Glossary On
Versions: 1 2 3 4 5 6 7 8 9 10 11 12 13 14 15 16 17 18 19 20 21 22 23 24 25 26 27 28 29 30 31 32 33 34 35 36 37 38 39 40 41 42 43 44 45 46 47 48 49
000
FTUS45 KBYZ 282321
TAFSHR
TAF
KSHR 282321Z 2900/2924 VRB03KT P6SM VCSH SCT015 BKN035
     FM290900 VRB03KT 5SM BR SCT005 BKN010 OVC025
     FM291400 VRB04KT P6SM VCFG SCT010 BKN030
     FM291600 09008KT P6SM VCSH SCT030 BKN050=

USA.gov is the U.S. government's official web portal to all federal, state and local government web resources and services.